Time;durP1;ratioP1;P1;durP2;ratioP2;P2;SDS_P1;SDS_P2;PMS_P1;PMS_P2;Temp;Humidity;BMP_temperature;BMP_pressure;BME280_temperature;BME280_humidity;BME280_pressure;Samples;Min_cycle;Max_cycle;Signal;HPM_P1;HPM_P2
2021/08/22 00:00:21;;;;;;;9.82;8.30;;;20.60;99.90;;;;;;4981745;28;20537;-83
2021/08/22 00:02:48;;;;;;;10.35;7.93;;;20.60;99.90;;;;;;4982683;28;20053;-83
2021/08/22 00:05:15;;;;;;;9.35;8.27;;;20.60;99.90;;;;;;4983514;28;20074;-82
2021/08/22 00:07:42;;;;;;;11.13;8.77;;;20.60;99.90;;;;;;4986943;28;20086;-83
2021/08/22 00:10:09;;;;;;;10.40;8.23;;;20.50;99.90;;;;;;4981127;28;20121;-82
2021/08/22 00:12:37;;;;;;;11.50;7.85;;;20.40;99.90;;;;;;4981462;28;20142;-83
2021/08/22 00:15:04;;;;;;;10.55;8.25;;;20.40;99.90;;;;;;4979796;28;20532;-83
2021/08/22 00:17:33;;;;;;;10.85;8.05;;;20.30;99.90;;;;;;4982819;28;20592;-83
2021/08/22 00:19:59;;;;;;;10.95;8.60;;;20.40;99.90;;;;;;4983485;28;20078;-83
2021/08/22 00:22:26;;;;;;;9.25;7.72;;;20.40;99.90;;;;;;4979877;28;20423;-83
2021/08/22 00:24:53;;;;;;;10.48;7.82;;;20.40;99.90;;;;;;4979743;28;20133;-81
2021/08/22 00:27:20;;;;;;;8.65;7.72;;;20.40;99.90;;;;;;4979818;28;20593;-83
2021/08/22 00:29:47;;;;;;;10.13;8.00;;;20.30;99.90;;;;;;4979406;28;20066;-82
2021/08/22 00:32:14;;;;;;;10.57;8.30;;;20.30;99.90;;;;;;4979890;28;20051;-82
2021/08/22 00:34:42;;;;;;;10.52;8.43;;;20.20;99.90;;;;;;4979188;28;20057;-82
2021/08/22 00:37:10;;;;;;;9.75;8.55;;;20.20;99.90;;;;;;4979887;28;20097;-82
2021/08/22 00:39:37;;;;;;;10.30;8.13;;;20.20;99.90;;;;;;4980114;28;20077;-82
2021/08/22 00:42:04;;;;;;;9.32;8.32;;;20.20;99.90;;;;;;4979593;28;20503;-81
2021/08/22 00:44:31;;;;;;;9.38;8.35;;;20.20;99.90;;;;;;4980483;28;20046;-82
2021/08/22 00:47:18;;;;;;;9.80;8.45;;;20.10;99.90;;;;;;5020329;23;20133;-81
2021/08/22 00:50:03;;;;;;;8.80;7.90;;;20.10;99.90;;;;;;4999503;28;20047;-81
2021/08/22 00:52:34;;;;;;;9.55;8.52;;;20.10;99.90;;;;;;4998393;28;20050;-81
2021/08/22 00:55:15;;;;;;;8.60;7.68;;;20.10;99.90;;;;;;4998508;28;20080;-81
2021/08/22 00:57:47;;;;;;;13.88;8.55;;;20.00;99.90;;;;;;4977766;28;20109;-81
2021/08/22 01:00:21;;;;;;;9.88;8.30;;;20.00;99.90;;;;;;4980913;28;20446;-85
2021/08/22 01:03:05;;;;;;;8.38;7.47;;;20.00;99.90;;;;;;4980691;28;20270;-82
2021/08/22 01:05:44;;;;;;;9.80;7.63;;;20.00;99.90;;;;;;4980273;28;20506;-81
2021/08/22 01:08:20;;;;;;;8.02;7.10;;;20.00;99.90;;;;;;4981077;28;20080;-83
2021/08/22 01:10:47;;;;;;;8.25;6.93;;;20.00;99.90;;;;;;4981216;28;20061;-81
2021/08/22 01:13:20;;;;;;;8.32;6.97;;;19.90;99.90;;;;;;4981966;28;20109;-82
2021/08/22 01:15:57;;;;;;;9.32;7.47;;;19.90;99.90;;;;;;4980165;28;20051;-81
2021/08/22 01:18:26;;;;;;;8.40;7.20;;;19.90;99.90;;;;;;4981854;28;20078;-83
2021/08/22 01:21:07;;;;;;;7.97;7.00;;;19.80;99.90;;;;;;4982958;28;20050;-83
2021/08/22 01:23:36;;;;;;;8.70;7.65;;;19.70;99.90;;;;;;4982297;28;20105;-83
2021/08/22 01:26:04;;;;;;;9.57;8.25;;;19.70;99.90;;;;;;4982941;28;20138;-84
2021/08/22 01:28:31;;;;;;;10.77;7.63;;;19.70;99.90;;;;;;4982759;28;20130;-84
2021/08/22 01:31:04;;;;;;;9.45;7.65;;;19.60;99.90;;;;;;4982987;28;20114;-83
2021/08/22 01:33:32;;;;;;;;;;;19.60;99.90;;;;;;4981238;28;20081;-83
2021/08/22 01:36:00;;;;;;;10.48;7.70;;;19.60;99.90;;;;;;4979677;28;20454;-82
2021/08/22 01:38:27;;;;;;;11.38;8.13;;;19.60;99.90;;;;;;4979276;28;20134;-82
2021/08/22 01:40:55;;;;;;;11.43;7.85;;;19.50;99.90;;;;;;4978757;28;20140;-83
2021/08/22 01:43:23;;;;;;;12.52;8.50;;;19.60;99.90;;;;;;4978911;28;20082;-83
2021/08/22 01:45:55;;;;;;;9.50;8.13;;;19.60;99.90;;;;;;4978639;28;20051;-82
2021/08/22 01:48:23;;;;;;;10.27;8.32;;;19.60;99.90;;;;;;4978985;28;20137;-82
2021/08/22 01:50:56;;;;;;;11.38;7.85;;;19.60;99.90;;;;;;4979024;28;20441;-84
2021/08/22 01:53:22;;;;;;;11.20;8.70;;;19.50;99.90;;;;;;4981376;28;20488;-83
2021/08/22 01:55:49;;;;;;;12.98;9.00;;;19.50;99.90;;;;;;4978438;28;20081;-81
2021/08/22 01:58:16;;;;;;;10.45;8.65;;;19.50;99.90;;;;;;4978311;28;20584;-84
2021/08/22 02:00:43;;;;;;;11.50;9.80;;;19.50;99.90;;;;;;4978469;28;20139;-82
2021/08/22 02:03:15;;;;;;;16.02;11.20;;;19.50;99.90;;;;;;4978203;28;20082;-81
2021/08/22 02:05:41;;;;;;;15.07;12.95;;;19.40;99.90;;;;;;4982078;28;20066;-82
2021/08/22 02:08:13;;;;;;;15.93;14.32;;;19.30;99.90;;;;;;4982685;28;20122;-82
2021/08/22 02:10:46;;;;;;;16.10;14.43;;;19.20;99.90;;;;;;4981032;28;20047;-80
2021/08/22 02:13:15;;;;;;;17.75;13.73;;;19.20;99.90;;;;;;4982348;28;20054;-82
2021/08/22 02:15:43;;;;;;;16.05;14.35;;;19.20;99.90;;;;;;4981635;28;20074;-81
2021/08/22 02:18:15;;;;;;;15.82;14.13;;;19.20;99.90;;;;;;4982961;28;20057;-82
2021/08/22 02:20:45;;;;;;;16.83;13.55;;;19.20;99.90;;;;;;4982186;28;20478;-82
2021/08/22 02:23:14;;;;;;;15.05;13.45;;;19.30;99.90;;;;;;4983121;28;20134;-84
2021/08/22 02:25:43;;;;;;;16.40;12.85;;;19.30;99.90;;;;;;4983086;28;20114;-83
2021/08/22 02:28:10;;;;;;;15.10;13.07;;;19.40;99.90;;;;;;4984206;28;20046;-84
2021/08/22 02:30:38;;;;;;;15.20;13.60;;;19.40;99.90;;;;;;4987403;28;20082;-85
2021/08/22 02:33:06;;;;;;;16.45;14.13;;;19.50;99.90;;;;;;4996916;28;20054;-83
2021/08/22 02:35:33;;;;;;;18.55;14.07;;;19.50;99.90;;;;;;4996300;28;20074;-85
2021/08/22 02:38:00;;;;;;;19.77;14.63;;;19.60;99.90;;;;;;4986807;28;20050;-83
2021/08/22 02:40:28;;;;;;;14.93;13.30;;;19.60;99.90;;;;;;4982606;28;20106;-83
2021/08/22 02:42:56;;;;;;;18.10;13.90;;;19.70;99.90;;;;;;4981591;28;20050;-84
2021/08/22 02:45:23;;;;;;;16.65;13.65;;;19.70;99.90;;;;;;4983138;28;20424;-83
2021/08/22 02:47:49;;;;;;;19.17;14.05;;;19.70;99.90;;;;;;4989247;28;20082;-83
2021/08/22 02:50:16;;;;;;;17.27;14.30;;;19.60;99.90;;;;;;4982937;28;20570;-83
2021/08/22 02:52:43;;;;;;;15.23;13.65;;;19.60;99.90;;;;;;4982130;28;20444;-81
2021/08/22 02:55:11;;;;;;;18.40;14.38;;;19.70;99.90;;;;;;4981229;28;20141;-79
2021/08/22 02:57:40;;;;;;;16.25;14.55;;;19.70;99.90;;;;;;4982134;28;20055;-81
2021/08/22 03:00:08;;;;;;;16.85;14.40;;;19.70;99.90;;;;;;4983271;28;20102;-81
2021/08/22 03:02:37;;;;;;;16.80;15.10;;;19.70;99.90;;;;;;4982696;28;20051;-82
2021/08/22 03:05:05;;;;;;;17.05;14.68;;;19.80;99.90;;;;;;4982371;28;20074;-82
2021/08/22 03:07:31;;;;;;;17.98;15.80;;;19.80;99.90;;;;;;4983567;28;20117;-81
2021/08/22 03:09:58;;;;;;;17.27;15.48;;;19.80;99.90;;;;;;4981970;28;20137;-81
2021/08/22 03:12:25;;;;;;;20.15;17.23;;;19.70;99.90;;;;;;4980691;28;20491;-81
2021/08/22 03:14:53;;;;;;;18.77;16.65;;;19.70;99.90;;;;;;4979910;28;20279;-82
2021/08/22 03:17:20;;;;;;;21.15;16.75;;;19.70;99.90;;;;;;4979119;28;20086;-82
2021/08/22 03:19:47;;;;;;;19.77;17.67;;;19.60;99.90;;;;;;4980554;28;20138;-81
2021/08/22 03:22:14;;;;;;;19.08;17.08;;;19.50;99.90;;;;;;4980315;28;20130;-81
2021/08/22 03:24:41;;;;;;;19.08;17.05;;;19.60;99.90;;;;;;4979288;28;20129;-81
2021/08/22 03:27:08;;;;;;;18.90;16.80;;;19.60;99.90;;;;;;4980381;28;20091;-81
2021/08/22 03:29:34;;;;;;;20.48;17.17;;;19.60;99.90;;;;;;4980809;28;20137;-81
2021/08/22 03:32:03;;;;;;;19.30;17.25;;;19.70;99.90;;;;;;4981351;28;20593;-82
2021/08/22 03:34:30;;;;;;;22.15;17.25;;;19.70;99.90;;;;;;4980040;28;20083;-80
2021/08/22 03:36:57;;;;;;;20.38;17.40;;;19.70;99.90;;;;;;4979932;28;20065;-81
2021/08/22 03:39:23;;;;;;;20.42;17.80;;;19.70;99.90;;;;;;4979726;28;20141;-82
2021/08/22 03:41:50;;;;;;;19.77;17.75;;;19.70;99.90;;;;;;4979780;28;20067;-80
2021/08/22 03:44:17;;;;;;;21.60;17.40;;;19.70;99.90;;;;;;4979244;28;20133;-81
2021/08/22 03:46:44;;;;;;;19.48;17.38;;;19.80;99.90;;;;;;4979660;28;20495;-83
2021/08/22 03:49:12;;;;;;;23.10;19.17;;;19.70;99.90;;;;;;4979803;28;20142;-80
2021/08/22 03:51:39;;;;;;;20.92;18.65;;;19.70;99.90;;;;;;4979322;28;20129;-81
2021/08/22 03:54:06;;;;;;;21.65;19.05;;;19.60;99.90;;;;;;4979784;28;20047;-82
2021/08/22 03:56:33;;;;;;;21.85;19.48;;;19.70;99.90;;;;;;4979129;28;20559;-81
2021/08/22 03:59:01;;;;;;;28.67;20.45;;;19.70;99.90;;;;;;4978798;28;20085;-81
2021/08/22 04:01:28;;;;;;;26.02;20.83;;;19.60;99.90;;;;;;4978855;28;20054;-80
2021/08/22 04:03:56;;;;;;;22.77;20.15;;;19.50;99.90;;;;;;4980154;28;20137;-80
2021/08/22 04:06:25;;;;;;;28.10;21.20;;;19.50;99.90;;;;;;4979087;28;20137;-81
2021/08/22 04:08:52;;;;;;;27.25;21.58;;;19.50;99.90;;;;;;4980115;28;20399;-80
2021/08/22 04:11:19;;;;;;;24.90;21.10;;;19.40;99.90;;;;;;4980446;28;20218;-81
2021/08/22 04:13:46;;;;;;;27.17;20.00;;;19.40;99.90;;;;;;4981463;28;20082;-82
2021/08/22 04:16:13;;;;;;;28.75;21.67;;;19.30;99.90;;;;;;4980747;28;20082;-83
2021/08/22 04:18:40;;;;;;;24.45;20.40;;;19.20;99.90;;;;;;4980112;28;20134;-83
2021/08/22 04:21:07;;;;;;;26.38;20.17;;;19.20;99.90;;;;;;4980188;28;20137;-81
2021/08/22 04:23:35;;;;;;;29.92;20.75;;;19.10;99.90;;;;;;4980270;28;20051;-82
2021/08/22 04:26:02;;;;;;;27.63;21.55;;;19.10;99.90;;;;;;4979668;28;20145;-83
2021/08/22 04:28:29;;;;;;;26.92;21.15;;;19.00;99.90;;;;;;4979977;28;20070;-83
2021/08/22 04:30:56;;;;;;;28.30;21.45;;;19.00;99.90;;;;;;4982283;28;20086;-83
2021/08/22 04:33:22;;;;;;;27.60;20.85;;;19.00;99.90;;;;;;4982008;28;20518;-83
2021/08/22 04:35:49;;;;;;;28.13;22.40;;;19.00;99.90;;;;;;4981288;28;20078;-84
2021/08/22 04:38:16;;;;;;;28.88;22.58;;;19.00;99.90;;;;;;4980221;28;20086;-84
2021/08/22 04:40:44;;;;;;;27.48;22.38;;;19.10;99.90;;;;;;4980924;28;20106;-83
2021/08/22 04:43:11;;;;;;;28.08;22.38;;;19.20;99.90;;;;;;4980540;28;20077;-83
2021/08/22 04:45:38;;;;;;;27.05;21.67;;;19.20;99.90;;;;;;4980606;28;20078;-84
2021/08/22 04:48:05;;;;;;;31.05;23.63;;;19.20;99.90;;;;;;4980281;28;20090;-83
2021/08/22 04:50:32;;;;;;;27.75;22.95;;;19.20;99.90;;;;;;4981006;28;20141;-83
2021/08/22 04:52:59;;;;;;;29.27;22.70;;;19.20;99.90;;;;;;4980367;28;20078;-82
2021/08/22 04:55:26;;;;;;;31.75;23.52;;;19.20;99.90;;;;;;4979671;28;20090;-83
2021/08/22 04:57:54;;;;;;;26.63;22.10;;;19.00;99.90;;;;;;4979501;28;20051;-82
2021/08/22 05:00:21;;;;;;;29.58;24.20;;;19.00;99.90;;;;;;4977429;28;20506;-82
2021/08/22 05:02:48;;;;;;;28.15;22.30;;;18.90;99.90;;;;;;4976559;28;20134;-81
2021/08/22 05:05:15;;;;;;;30.90;23.15;;;18.80;99.90;;;;;;4977563;28;20093;-81
2021/08/22 05:07:42;;;;;;;29.60;22.38;;;18.80;99.90;;;;;;4979060;28;20125;-81
2021/08/22 05:10:10;;;;;;;28.08;22.02;;;18.70;99.90;;;;;;4979434;28;20137;-81
2021/08/22 05:12:37;;;;;;;31.80;22.15;;;18.80;99.90;;;;;;4978827;28;20085;-81
2021/08/22 05:15:10;;;;;;;28.60;21.85;;;18.80;99.90;;;;;;4979303;28;20134;-81
2021/08/22 05:17:36;;;;;;;26.92;21.67;;;18.80;99.90;;;;;;4980124;28;20085;-81
2021/08/22 05:20:04;;;;;;;26.63;21.65;;;18.80;99.90;;;;;;4979600;28;20094;-81
2021/08/22 05:22:31;;;;;;;24.85;20.48;;;18.90;99.90;;;;;;4980788;28;20138;-80
2021/08/22 05:24:57;;;;;;;22.02;19.45;;;19.00;99.90;;;;;;4978525;28;20141;-80
2021/08/22 05:27:24;;;;;;;23.42;20.15;;;19.10;99.90;;;;;;4978804;28;20051;-80
2021/08/22 05:29:51;;;;;;;26.23;19.77;;;19.20;99.90;;;;;;4978877;28;20110;-80
2021/08/22 05:32:19;;;;;;;22.40;19.00;;;19.20;99.90;;;;;;4979437;28;20216;-80
2021/08/22 05:34:46;;;;;;;23.80;19.25;;;19.30;99.90;;;;;;4978406;28;20097;-80
2021/08/22 05:37:13;;;;;;;23.17;18.95;;;19.40;99.90;;;;;;4978691;28;20093;-80
2021/08/22 05:39:40;;;;;;;22.67;19.67;;;19.40;99.90;;;;;;4980869;28;20565;-79
2021/08/22 05:42:10;;;;;;;22.20;19.25;;;19.50;99.90;;;;;;4984513;28;20515;-81
2021/08/22 05:44:47;;;;;;;23.15;18.20;;;19.50;99.90;;;;;;4985373;28;20168;-80
2021/08/22 05:47:19;;;;;;;21.10;17.92;;;19.60;99.90;;;;;;4982164;28;20054;-81
2021/08/22 05:49:47;;;;;;;20.95;18.75;;;19.60;99.90;;;;;;4982102;28;20106;-82
2021/08/22 05:52:15;;;;;;;25.00;19.08;;;19.70;99.90;;;;;;4983602;28;20046;-81
2021/08/22 05:54:41;;;;;;;22.00;18.42;;;19.70;99.90;;;;;;4983853;28;20070;-82
2021/08/22 05:57:08;;;;;;;23.80;19.55;;;19.70;99.90;;;;;;4991487;23;20137;-77
2021/08/22 05:59:35;;;;;;;23.77;19.00;;;19.70;99.90;;;;;;4960551;28;20535;-77
2021/08/22 06:02:02;;;;;;;21.95;18.45;;;19.80;99.90;;;;;;4955437;29;20134;-77
2021/08/22 06:04:30;;;;;;;20.70;18.48;;;19.80;99.90;;;;;;4955340;29;20146;-76
2021/08/22 06:06:58;;;;;;;19.95;17.80;;;19.90;99.90;;;;;;4955706;28;20051;-77
2021/08/22 06:09:25;;;;;;;23.27;17.20;;;20.00;99.90;;;;;;4955632;29;20057;-77
2021/08/22 06:11:52;;;;;;;21.85;17.95;;;20.20;99.90;;;;;;4955575;28;20134;-76
2021/08/22 06:14:19;;;;;;;21.73;18.13;;;20.30;99.90;;;;;;4955315;28;20460;-77
2021/08/22 06:16:45;;;;;;;23.77;18.95;;;20.30;99.90;;;;;;4955763;29;20425;-77
2021/08/22 06:19:12;;;;;;;22.50;16.25;;;20.30;99.90;;;;;;4955865;29;20057;-77
2021/08/22 06:21:39;;;;;;;19.63;16.58;;;20.20;99.90;;;;;;4955538;28;20061;-76
2021/08/22 06:24:07;;;;;;;18.92;16.02;;;20.10;99.90;;;;;;4955200;28;20047;-76
2021/08/22 06:26:34;;;;;;;20.45;16.05;;;20.10;99.90;;;;;;4955037;28;20130;-75
2021/08/22 06:29:01;;;;;;;20.13;15.77;;;20.10;99.90;;;;;;4955101;28;20058;-77
2021/08/22 06:31:28;;;;;;;20.33;16.30;;;20.10;99.90;;;;;;4955264;29;20083;-77
2021/08/22 06:33:55;;;;;;;19.33;14.73;;;20.10;99.90;;;;;;4955281;28;20051;-77
2021/08/22 06:36:22;;;;;;;17.75;14.35;;;20.20;99.90;;;;;;4954696;29;20566;-76
2021/08/22 06:38:49;;;;;;;15.18;13.40;;;20.30;99.90;;;;;;4954922;28;20066;-77
2021/08/22 06:41:17;;;;;;;20.52;13.93;;;20.50;99.90;;;;;;4954834;29;20067;-78
2021/08/22 06:43:44;;;;;;;15.60;12.18;;;20.70;99.90;;;;;;4954536;29;20138;-76
2021/08/22 06:46:11;;;;;;;15.25;11.63;;;21.10;99.90;;;;;;4954233;29;20078;-76
2021/08/22 06:48:38;;;;;;;14.90;11.98;;;21.40;99.90;;;;;;4954729;28;20170;-76
2021/08/22 06:51:05;;;;;;;17.73;11.98;;;21.50;99.90;;;;;;4954517;28;20051;-76
2021/08/22 06:53:31;;;;;;;13.57;12.18;;;21.60;99.90;;;;;;4954751;28;20043;-76
2021/08/22 06:55:58;;;;;;;15.20;11.05;;;21.50;99.90;;;;;;4954111;28;20425;-76
2021/08/22 06:58:26;;;;;;;14.60;11.68;;;21.40;99.90;;;;;;4954690;29;20578;-76
2021/08/22 07:00:53;;;;;;;15.95;11.10;;;21.20;99.90;;;;;;4954803;28;20126;-76
2021/08/22 07:03:20;;;;;;;12.77;10.38;;;21.30;99.90;;;;;;4954493;29;20082;-76
2021/08/22 07:05:47;;;;;;;11.13;9.45;;;21.90;99.90;;;;;;4953046;28;20483;-77
2021/08/22 07:08:14;;;;;;;10.88;8.90;;;22.50;99.90;;;;;;4954389;28;20059;-76
2021/08/22 07:10:41;;;;;;;22.98;11.55;;;23.00;99.90;;;;;;4954172;28;20384;-77
2021/08/22 07:13:09;;;;;;;18.30;10.20;;;23.00;99.90;;;;;;4953547;28;20339;-77
2021/08/22 07:15:37;;;;;;;12.63;9.00;;;22.80;99.90;;;;;;4972789;28;20458;-77
2021/08/22 07:18:04;;;;;;;13.18;8.43;;;22.40;99.90;;;;;;4973535;28;20139;-77
2021/08/22 07:20:31;;;;;;;12.55;8.10;;;22.10;99.90;;;;;;4972640;28;20089;-76
2021/08/22 07:22:58;;;;;;;12.93;8.65;;;21.80;99.90;;;;;;4973170;28;20051;-78
2021/08/22 07:25:25;;;;;;;12.70;8.70;;;21.60;99.90;;;;;;4971232;28;20050;-77
2021/08/22 07:27:52;;;;;;;12.13;9.55;;;21.50;99.90;;;;;;4953831;28;20077;-77
2021/08/22 07:30:19;;;;;;;11.52;9.27;;;21.40;99.90;;;;;;4952999;28;20078;-79
2021/08/22 07:32:47;;;;;;;12.60;9.10;;;21.50;99.90;;;;;;4953524;28;20051;-75
2021/08/22 07:35:14;;;;;;;11.18;9.05;;;21.70;99.90;;;;;;4952721;28;20051;-75
2021/08/22 07:37:43;;;;;;;12.57;9.93;;;21.80;99.90;;;;;;4953302;29;20133;-76
2021/08/22 07:40:11;;;;;;;12.18;9.98;;;21.70;99.90;;;;;;4953088;28;20133;-76
2021/08/22 07:42:38;;;;;;;11.93;8.88;;;21.70;99.90;;;;;;4954122;28;20058;-75
2021/08/22 07:45:06;;;;;;;11.88;9.45;;;21.80;99.90;;;;;;4940986;28;20062;-78
2021/08/22 07:47:33;;;;;;;12.68;9.15;;;21.70;99.90;;;;;;4934010;29;20099;-74
2021/08/22 07:50:01;;;;;;;12.32;10.13;;;21.70;99.90;;;;;;4932840;29;20054;-75
2021/08/22 07:52:28;;;;;;;13.50;10.35;;;21.50;99.90;;;;;;4933162;29;20497;-75
2021/08/22 07:54:55;;;;;;;12.15;10.77;;;21.40;99.90;;;;;;4933105;29;20058;-74
2021/08/22 07:57:22;;;;;;;12.85;10.57;;;21.30;99.90;;;;;;4933593;29;20086;-74
2021/08/22 07:59:49;;;;;;;12.07;10.82;;;21.30;99.90;;;;;;4936938;29;20516;-74
2021/08/22 08:02:15;;;;;;;13.10;10.90;;;21.30;99.90;;;;;;4951664;28;20058;-73
2021/08/22 08:04:42;;;;;;;16.63;12.85;;;21.40;99.90;;;;;;4941306;29;20056;-76
2021/08/22 08:07:11;;;;;;;15.48;12.32;;;21.40;99.90;;;;;;4932894;29;20130;-75
2021/08/22 08:09:37;;;;;;;14.48;12.32;;;21.40;99.90;;;;;;4935415;29;20071;-76
2021/08/22 08:12:06;;;;;;;18.55;12.98;;;21.30;99.90;;;;;;4946708;29;20074;-75
2021/08/22 08:14:33;;;;;;;13.88;12.32;;;21.30;99.90;;;;;;4934203;29;20075;-75
2021/08/22 08:17:00;;;;;;;14.52;12.80;;;21.30;99.90;;;;;;4934961;29;20516;-75
2021/08/22 08:19:27;;;;;;;13.52;11.60;;;21.20;99.90;;;;;;4935579;29;20433;-74
2021/08/22 08:21:54;;;;;;;12.90;11.60;;;21.20;99.90;;;;;;4934222;29;20461;-76
2021/08/22 08:24:22;;;;;;;14.02;12.43;;;21.20;99.90;;;;;;4934787;29;20134;-76
2021/08/22 08:26:49;;;;;;;12.45;11.15;;;21.20;99.90;;;;;;4935163;29;20106;-74
2021/08/22 08:29:16;;;;;;;14.15;12.15;;;21.30;99.90;;;;;;4933842;29;20483;-74
2021/08/22 08:31:42;;;;;;;12.10;10.68;;;21.30;99.90;;;;;;4933682;29;20087;-75
2021/08/22 08:34:09;;;;;;;12.50;11.27;;;21.40;99.90;;;;;;4933688;29;20094;-75
2021/08/22 08:36:36;;;;;;;13.73;11.27;;;21.70;99.90;;;;;;4933548;29;20465;-75
2021/08/22 08:39:03;;;;;;;12.65;10.80;;;21.90;99.90;;;;;;4933917;29;20161;-75
2021/08/22 08:41:31;;;;;;;12.13;10.75;;;22.10;99.90;;;;;;4933466;29;20548;-75
2021/08/22 08:43:58;;;;;;;13.45;10.80;;;22.20;99.90;;;;;;4932435;29;20052;-75
2021/08/22 08:46:27;;;;;;;14.77;11.38;;;22.30;99.90;;;;;;4932813;29;20051;-76
2021/08/22 08:48:56;;;;;;;14.90;11.43;;;22.30;99.90;;;;;;4933534;29;20094;-75
2021/08/22 08:51:49;;;;;;;13.00;10.63;;;22.20;99.90;;;;;;4933866;29;20090;-75
2021/08/22 08:54:18;;;;;;;13.32;11.18;;;22.00;99.90;;;;;;4928582;29;20051;-75
2021/08/22 08:56:46;;;;;;;15.38;10.63;;;21.90;99.90;;;;;;4933022;29;20367;-75
2021/08/22 08:59:13;;;;;;;11.35;10.20;;;22.00;99.90;;;;;;4933556;29;20134;-75
2021/08/22 09:01:40;;;;;;;11.52;9.82;;;22.20;99.90;;;;;;4933673;29;20142;-75
2021/08/22 09:04:21;;;;;;;9.77;8.82;;;23.00;99.90;;;;;;4933493;29;20102;-75
2021/08/22 09:07:20;;;;;;;9.77;8.77;;;23.70;99.90;;;;;;4932011;29;20572;-77
2021/08/22 09:10:25;;;;;;;12.25;9.43;;;23.90;99.90;;;;;;4931534;29;20059;-75
2021/08/22 09:13:29;;;;;;;9.82;8.27;;;24.00;99.90;;;;;;4930943;29;20431;-75
2021/08/22 09:16:34;;;;;;;10.70;8.80;;;24.30;99.90;;;;;;4933304;29;20085;-75
2021/08/22 09:19:48;;;;;;;9.68;8.07;;;24.60;99.90;;;;;;4934014;29;20054;-75
2021/08/22 09:22:52;;;;;;;11.40;9.05;;;24.60;99.90;;;;;;4934248;29;20127;-74
2021/08/22 09:25:59;;;;;;;10.55;9.48;;;24.60;99.90;;;;;;4934465;29;20122;-75
2021/08/22 09:29:20;;;;;;;10.95;8.93;;;24.10;99.90;;;;;;4907349;29;20204;-75
2021/08/22 09:32:27;;;;;;;11.65;9.27;;;23.80;99.90;;;;;;4933302;29;20086;-75
2021/08/22 09:35:34;;;;;;;14.02;9.80;;;23.60;99.90;;;;;;4936205;29;20071;-75
2021/08/22 09:38:41;;;;;;;12.15;9.52;;;23.40;99.90;;;;;;4934549;29;20047;-75
2021/08/22 09:41:47;;;;;;;11.80;9.00;;;23.10;99.90;;;;;;4936288;29;20127;-75
2021/08/22 09:45:05;;;;;;;9.98;8.95;;;22.90;99.90;;;;;;4935997;29;20154;-78
2021/08/22 09:48:10;;;;;;;10.80;9.10;;;23.20;99.90;;;;;;4936437;29;20150;-74
2021/08/22 09:51:26;;;;;;;9.70;7.90;;;23.30;99.90;;;;;;4934937;29;20051;-76
2021/08/22 09:54:38;;;;;;;9.18;8.10;;;23.20;99.90;;;;;;4930190;29;20171;-75
2021/08/22 09:57:57;;;;;;;8.80;7.85;;;23.10;99.90;;;;;;4935483;29;20135;-76
2021/08/22 10:01:07;;;;;;;10.95;9.10;;;23.20;99.90;;;;;;4935738;29;20094;-76
2021/08/22 10:03:59;;;;;;;9.10;7.95;;;23.20;99.90;;;;;;4928355;29;20453;-75
2021/08/22 10:06:45;;;;;;;10.07;7.40;;;23.50;99.90;;;;;;4933253;29;20127;-75
2021/08/22 10:09:15;;;;;;;11.63;7.80;;;23.70;99.90;;;;;;4935309;29;20544;-75
2021/08/22 10:11:44;;;;;;;8.13;6.88;;;23.40;99.90;;;;;;4936347;29;20055;-80
2021/08/22 10:14:12;;;;;;;9.60;7.55;;;23.20;99.90;;;;;;4935228;29;20127;-76
2021/08/22 10:16:40;;;;;;;9.55;6.95;;;23.10;99.90;;;;;;4932683;29;20051;-76
2021/08/22 10:19:08;;;;;;;10.63;6.55;;;23.20;99.90;;;;;;4934671;29;20050;-75
2021/08/22 10:21:35;;;;;;;8.05;6.35;;;23.00;99.90;;;;;;4935664;29;20077;-76
2021/08/22 10:24:22;;;;;;;8.68;6.95;;;22.90;99.90;;;;;;4935260;29;20178;-76
2021/08/22 10:26:51;;;;;;;9.77;6.50;;;23.00;99.90;;;;;;4935956;29;20067;-77
2021/08/22 10:29:23;;;;;;;8.73;6.85;;;22.90;99.90;;;;;;4935926;29;20146;-76
2021/08/22 10:32:21;;;;;;;8.40;6.67;;;22.90;99.90;;;;;;4935796;29;20055;-75
2021/08/22 10:34:58;;;;;;;8.48;5.90;;;23.10;99.90;;;;;;4934179;29;20662;-75
2021/08/22 10:37:30;;;;;;;9.85;6.13;;;23.20;99.90;;;;;;4930786;29;20098;-77
2021/08/22 10:39:59;;;;;;;8.95;5.72;;;23.40;99.90;;;;;;4935272;29;20477;-75
2021/08/22 10:42:28;;;;;;;7.38;5.70;;;23.50;99.90;;;;;;4936117;29;20134;-74
2021/08/22 10:44:55;;;;;;;7.93;5.28;;;23.50;99.90;;;;;;4935754;29;20051;-76
2021/08/22 10:47:43;;;;;;;8.57;5.30;;;23.60;99.90;;;;;;4936293;29;20419;-76
2021/08/22 10:50:11;;;;;;;9.75;5.40;;;23.80;99.90;;;;;;4936530;29;20444;-76
2021/08/22 10:52:39;;;;;;;8.95;5.57;;;24.00;99.90;;;;;;4936508;29;20156;-76
2021/08/22 10:55:31;;;;;;;9.18;5.20;;;24.10;99.90;;;;;;4936152;29;20424;-76
2021/08/22 10:57:59;;;;;;;8.80;4.93;;;24.20;99.90;;;;;;4936149;29;20141;-76
2021/08/22 11:00:27;;;;;;;7.20;5.22;;;24.30;99.90;;;;;;4930543;29;20143;-76
2021/08/22 11:02:56;;;;;;;7.05;5.43;;;24.30;99.90;;;;;;4942873;29;20051;-75
2021/08/22 11:05:25;;;;;;;6.30;4.93;;;24.10;99.90;;;;;;4944841;29;20465;-76
2021/08/22 11:07:52;;;;;;;8.68;5.20;;;23.80;99.90;;;;;;4934669;29;20146;-77
2021/08/22 11:10:21;;;;;;;9.20;5.43;;;23.70;99.90;;;;;;4935468;29;20091;-74
2021/08/22 11:12:52;;;;;;;6.88;5.20;;;23.60;99.90;;;;;;4938977;29;20079;-75
2021/08/22 11:15:27;;;;;;;7.43;5.20;;;23.60;99.90;;;;;;4938145;29;20047;-75
2021/08/22 11:21:49;;;;;;;;;;;;;;;;;;;;;
2021/08/22 11:28:04;;;;;;;9.63;5.13;;;23.50;99.90;;;;;;4847542;29;20042;-76
2021/08/22 11:37:45;;;;;;;;;;;;;;;;;;;;;
2021/08/22 11:43:26;;;;;;;7.43;5.07;;;23.80;99.90;;;;;;4798441;29;20120;-78
2021/08/22 11:45:54;;;;;;;7.65;4.88;;;23.90;99.90;;;;;;4881217;29;20105;-75
2021/08/22 11:48:28;;;;;;;6.65;4.47;;;23.90;99.90;;;;;;4940005;29;20094;-77
2021/08/22 11:51:02;;;;;;;9.80;5.60;;;23.80;99.90;;;;;;4934307;28;20066;-74
2021/08/22 11:53:30;;;;;;;8.23;5.22;;;23.80;99.90;;;;;;4933946;29;20067;-74
2021/08/22 12:04:33;;;;;;;7.88;5.35;;;23.30;99.90;;;;;;4950038;29;20043;-88
2021/08/22 12:07:01;;;;;;;7.90;5.05;;;23.40;99.90;;;;;;5035251;28;20049;-86
2021/08/22 12:09:28;;;;;;;7.00;4.70;;;23.40;99.90;;;;;;5035843;28;20053;-86
2021/08/22 12:11:55;;;;;;;7.93;5.03;;;23.60;99.90;;;;;;5028675;28;20132;-89
2021/08/22 12:14:22;;;;;;;8.00;4.72;;;23.90;99.90;;;;;;5022775;28;20453;-86
2021/08/22 12:16:56;;;;;;;7.57;4.35;;;24.10;99.90;;;;;;5021819;28;20168;-86
2021/08/22 12:19:25;;;;;;;9.38;4.53;;;24.10;99.90;;;;;;5021537;28;20045;-85
2021/08/22 12:21:55;;;;;;;8.60;4.68;;;24.00;99.90;;;;;;5011936;28;20467;-86
2021/08/22 12:24:24;;;;;;;6.35;4.60;;;23.70;99.90;;;;;;5005553;28;20139;-87
2021/08/22 12:26:52;;;;;;;9.05;4.80;;;23.60;99.90;;;;;;5008041;28;20062;-85
2021/08/22 12:29:27;;;;;;;7.25;5.03;;;23.50;99.90;;;;;;5015830;28;20112;-86
2021/08/22 12:31:55;;;;;;;9.80;4.78;;;23.50;99.90;;;;;;5021382;28;20046;-86
2021/08/22 12:34:23;;;;;;;7.38;4.60;;;23.50;99.90;;;;;;5020962;28;20046;-88
2021/08/22 12:36:50;;;;;;;8.38;4.88;;;23.60;99.90;;;;;;5020419;28;20045;-88
2021/08/22 12:39:20;;;;;;;8.63;4.68;;;23.60;99.90;;;;;;5019342;28;20118;-88
2021/08/22 12:41:48;;;;;;;7.20;3.95;;;23.70;99.90;;;;;;5020259;28;20053;-89
2021/08/22 12:44:17;;;;;;;8.48;4.28;;;23.70;99.90;;;;;;5007065;28;20057;-90
2021/08/22 12:46:48;;;;;;;8.52;3.95;;;23.70;99.90;;;;;;5004891;28;20085;-91
2021/08/22 12:49:15;;;;;;;7.85;3.50;;;23.60;99.90;;;;;;5003398;28;20054;-87
2021/08/22 12:51:48;;;;;;;6.43;3.50;;;23.40;99.90;;;;;;5002024;28;20195;-88
2021/08/22 12:54:15;;;;;;;7.40;3.83;;;23.30;99.90;;;;;;5000713;28;20267;-89
2021/08/22 12:56:44;;;;;;;4.85;3.50;;;23.20;99.90;;;;;;5016614;28;20206;-89
2021/08/22 12:59:11;;;;;;;6.15;3.60;;;23.10;99.90;;;;;;5020982;28;20454;-90
2021/08/22 13:01:38;;;;;;;7.90;3.88;;;23.10;99.90;;;;;;5020230;28;20096;-90
2021/08/22 13:04:05;;;;;;;5.68;3.55;;;23.20;99.90;;;;;;5021435;28;20050;-91
2021/08/22 13:06:32;;;;;;;6.32;4.22;;;23.40;99.90;;;;;;5020738;28;20439;-89
2021/08/22 13:08:59;;;;;;;6.95;4.55;;;23.40;99.90;;;;;;5014245;28;20042;-86
2021/08/22 13:11:26;;;;;;;6.38;4.75;;;23.30;99.90;;;;;;5015843;28;20050;-87
2021/08/22 13:13:55;;;;;;;7.38;4.55;;;23.30;99.90;;;;;;5013888;28;20038;-87
2021/08/22 13:16:23;;;;;;;7.45;5.22;;;23.40;99.90;;;;;;5013473;28;20133;-87
2021/08/22 13:18:50;;;;;;;10.20;4.85;;;23.50;99.90;;;;;;5019146;28;20547;-87
2021/08/22 13:21:17;;;;;;;7.47;4.75;;;23.50;99.90;;;;;;5017622;28;20085;-90
2021/08/22 13:29:47;;;;;;;6.72;4.25;;;23.60;99.90;;;;;;4972433;28;20086;-82